sensor_id;sensor_type;location;lat;lon;timestamp;pressure;altitude;pressure_sealevel;temperature;humidity
62712;BME280;48772;55.586;37.730;2023-09-18T00:00:59;99810.31;;;11.27;100.00
62712;BME280;48772;55.586;37.730;2023-09-18T00:03:25;99836.88;;;11.39;100.00
62712;BME280;48772;55.586;37.730;2023-09-18T00:05:52;99834.97;;;11.30;100.00
62712;BME280;48772;55.586;37.730;2023-09-18T00:08:19;99821.25;;;11.24;100.00
62712;BME280;48772;55.586;37.730;2023-09-18T00:10:51;99860.16;;;11.37;100.00
62712;BME280;48772;55.586;37.730;2023-09-18T00:13:17;99830.59;;;11.18;100.00
62712;BME280;48772;55.586;37.730;2023-09-18T00:15:43;99855.47;;;11.30;100.00
62712;BME280;48772;55.586;37.730;2023-09-18T00:18:16;99829.63;;;11.19;100.00
62712;BME280;48772;55.586;37.730;2023-09-18T00:20:44;99832.66;;;11.15;100.00
62712;BME280;48772;55.586;37.730;2023-09-18T00:23:11;99859.00;;;11.30;100.00
62712;BME280;48772;55.586;37.730;2023-09-18T00:25:37;99855.94;;;11.35;100.00
62712;BME280;48772;55.586;37.730;2023-09-18T00:28:04;99834.34;;;11.27;100.00
62712;BME280;48772;55.586;37.730;2023-09-18T00:30:31;99848.56;;;11.27;100.00
62712;BME280;48772;55.586;37.730;2023-09-18T00:32:58;99852.91;;;11.28;100.00
62712;BME280;48772;55.586;37.730;2023-09-18T00:35:24;99863.00;;;11.36;100.00
62712;BME280;48772;55.586;37.730;2023-09-18T00:37:50;99847.69;;;11.38;100.00
62712;BME280;48772;55.586;37.730;2023-09-18T00:40:16;99853.75;;;11.40;100.00
62712;BME280;48772;55.586;37.730;2023-09-18T00:42:44;99819.09;;;11.18;100.00
62712;BME280;48772;55.586;37.730;2023-09-18T00:45:11;99840.66;;;11.26;100.00
62712;BME280;48772;55.586;37.730;2023-09-18T00:47:38;99786.56;;;10.91;100.00
62712;BME280;48772;55.586;37.730;2023-09-18T00:50:07;99825.38;;;11.17;100.00
62712;BME280;48772;55.586;37.730;2023-09-18T00:52:35;99853.16;;;11.36;100.00
62712;BME280;48772;55.586;37.730;2023-09-18T00:55:02;99855.34;;;11.31;100.00
62712;BME280;48772;55.586;37.730;2023-09-18T00:57:31;99842.13;;;11.30;100.00
62712;BME280;48772;55.586;37.730;2023-09-18T00:59:57;99857.03;;;11.32;100.00
62712;BME280;48772;55.586;37.730;2023-09-18T01:02:24;99833.88;;;11.22;100.00
62712;BME280;48772;55.586;37.730;2023-09-18T01:04:50;99842.81;;;11.32;100.00
62712;BME280;48772;55.586;37.730;2023-09-18T01:07:16;99842.81;;;11.32;100.00
62712;BME280;48772;55.586;37.730;2023-09-18T01:09:45;99845.50;;;11.32;100.00
62712;BME280;48772;55.586;37.730;2023-09-18T01:12:19;99833.13;;;11.31;100.00
62712;BME280;48772;55.586;37.730;2023-09-18T01:14:59;99840.66;;;11.37;100.00
62712;BME280;48772;55.586;37.730;2023-09-18T01:17:35;99824.88;;;11.34;100.00
62712;BME280;48772;55.586;37.730;2023-09-18T01:20:04;99829.72;;;11.40;100.00
62712;BME280;48772;55.586;37.730;2023-09-18T01:22:31;99821.09;;;11.36;100.00
62712;BME280;48772;55.586;37.730;2023-09-18T01:24:57;99830.44;;;11.42;100.00
62712;BME280;48772;55.586;37.730;2023-09-18T01:27:24;99823.66;;;11.38;100.00
62712;BME280;48772;55.586;37.730;2023-09-18T01:29:50;99807.41;;;11.30;100.00
62712;BME280;48772;55.586;37.730;2023-09-18T01:32:19;99822.66;;;11.39;100.00
62712;BME280;48772;55.586;37.730;2023-09-18T01:34:56;99823.41;;;11.41;100.00
62712;BME280;48772;55.586;37.730;2023-09-18T01:37:25;99818.56;;;11.35;100.00
62712;BME280;48772;55.586;37.730;2023-09-18T01:39:52;99814.06;;;11.35;100.00
62712;BME280;48772;55.586;37.730;2023-09-18T01:42:20;99808.75;;;11.35;100.00
62712;BME280;48772;55.586;37.730;2023-09-18T01:44:47;99820.63;;;11.42;100.00
62712;BME280;48772;55.586;37.730;2023-09-18T01:47:17;99807.38;;;11.41;100.00
62712;BME280;48772;55.586;37.730;2023-09-18T01:49:44;99804.59;;;11.42;100.00
62712;BME280;48772;55.586;37.730;2023-09-18T01:52:12;99807.72;;;11.47;100.00
62712;BME280;48772;55.586;37.730;2023-09-18T01:54:39;99795.50;;;11.34;100.00
62712;BME280;48772;55.586;37.730;2023-09-18T01:57:05;99818.44;;;11.36;100.00
62712;BME280;48772;55.586;37.730;2023-09-18T01:59:34;99805.94;;;11.37;100.00
62712;BME280;48772;55.586;37.730;2023-09-18T02:02:02;99791.16;;;11.22;100.00
62712;BME280;48772;55.586;37.730;2023-09-18T02:04:29;99783.53;;;11.17;100.00
62712;BME280;48772;55.586;37.730;2023-09-18T02:06:56;99803.19;;;11.27;100.00
62712;BME280;48772;55.586;37.730;2023-09-18T02:09:22;99765.44;;;11.10;100.00
62712;BME280;48772;55.586;37.730;2023-09-18T02:11:48;99801.59;;;11.25;100.00
62712;BME280;48772;55.586;37.730;2023-09-18T02:14:16;99772.75;;;11.08;100.00
62712;BME280;48772;55.586;37.730;2023-09-18T02:16:43;99787.06;;;11.18;100.00
62712;BME280;48772;55.586;37.730;2023-09-18T02:19:13;99797.72;;;11.29;100.00
62712;BME280;48772;55.586;37.730;2023-09-18T02:21:46;99800.38;;;11.29;100.00
62712;BME280;48772;55.586;37.730;2023-09-18T02:24:12;99768.97;;;11.10;100.00
62712;BME280;48772;55.586;37.730;2023-09-18T02:26:38;99762.31;;;11.05;100.00
62712;BME280;48772;55.586;37.730;2023-09-18T02:29:07;99798.94;;;11.25;100.00
62712;BME280;48772;55.586;37.730;2023-09-18T02:31:35;99776.28;;;11.08;100.00
62712;BME280;48772;55.586;37.730;2023-09-18T02:34:01;99772.63;;;11.09;100.00
62712;BME280;48772;55.586;37.730;2023-09-18T02:36:27;99785.09;;;11.09;100.00
62712;BME280;48772;55.586;37.730;2023-09-18T02:38:53;99785.59;;;11.14;100.00
62712;BME280;48772;55.586;37.730;2023-09-18T02:41:19;99787.53;;;11.12;100.00
62712;BME280;48772;55.586;37.730;2023-09-18T02:43:46;99775.53;;;11.06;100.00
62712;BME280;48772;55.586;37.730;2023-09-18T02:46:13;99776.13;;;11.10;100.00
62712;BME280;48772;55.586;37.730;2023-09-18T02:48:39;99776.13;;;11.10;100.00
62712;BME280;48772;55.586;37.730;2023-09-18T02:51:05;99787.06;;;11.18;100.00
62712;BME280;48772;55.586;37.730;2023-09-18T02:53:32;99751.38;;;11.08;100.00
62712;BME280;48772;55.586;37.730;2023-09-18T02:55:59;99742.66;;;11.06;100.00
62712;BME280;48772;55.586;37.730;2023-09-18T02:58:27;99731.38;;;11.02;100.00
62712;BME280;48772;55.586;37.730;2023-09-18T03:00:57;99761.94;;;11.20;100.00
62712;BME280;48772;55.586;37.730;2023-09-18T03:03:29;99775.97;;;11.22;100.00
62712;BME280;48772;55.586;37.730;2023-09-18T03:06:01;99771.50;;;11.23;100.00
62712;BME280;48772;55.586;37.730;2023-09-18T03:08:28;99769.06;;;11.20;100.00
62712;BME280;48772;55.586;37.730;2023-09-18T03:10:55;99760.84;;;11.12;100.00
62712;BME280;48772;55.586;37.730;2023-09-18T03:13:22;99773.59;;;11.19;100.00
62712;BME280;48772;55.586;37.730;2023-09-18T03:15:48;99752.09;;;11.10;100.00
62712;BME280;48772;55.586;37.730;2023-09-18T03:18:14;99753.56;;;11.14;100.00
62712;BME280;48772;55.586;37.730;2023-09-18T03:20:42;99735.16;;;11.00;100.00
62712;BME280;48772;55.586;37.730;2023-09-18T03:23:09;99764.47;;;11.22;100.00
62712;BME280;48772;55.586;37.730;2023-09-18T03:25:36;99752.34;;;11.18;100.00
62712;BME280;48772;55.586;37.730;2023-09-18T03:28:03;99764.06;;;11.26;100.00
62712;BME280;48772;55.586;37.730;2023-09-18T03:30:32;99760.91;;;11.32;100.00
62712;BME280;48772;55.586;37.730;2023-09-18T03:32:58;99751.47;;;11.28;100.00
62712;BME280;48772;55.586;37.730;2023-09-18T03:35:25;99764.91;;;11.38;100.00
62712;BME280;48772;55.586;37.730;2023-09-18T03:37:52;99764.66;;;11.41;100.00
62712;BME280;48772;55.586;37.730;2023-09-18T03:40:20;99758.88;;;11.36;100.00
62712;BME280;48772;55.586;37.730;2023-09-18T03:42:47;99731.94;;;11.17;100.00
62712;BME280;48772;55.586;37.730;2023-09-18T03:45:13;99750.38;;;11.31;100.00
62712;BME280;48772;55.586;37.730;2023-09-18T03:47:41;99776.53;;;11.48;100.00
62712;BME280;48772;55.586;37.730;2023-09-18T03:50:11;99761.75;;;11.44;100.00
62712;BME280;48772;55.586;37.730;2023-09-18T03:52:39;99763.69;;;11.42;100.00
62712;BME280;48772;55.586;37.730;2023-09-18T03:55:06;99778.72;;;11.54;100.00
62712;BME280;48772;55.586;37.730;2023-09-18T03:57:32;99783.34;;;11.63;100.00
62712;BME280;48772;55.586;37.730;2023-09-18T03:59:58;99782.22;;;11.65;100.00
62712;BME280;48772;55.586;37.730;2023-09-18T04:02:25;99770.56;;;11.66;100.00
62712;BME280;48772;55.586;37.730;2023-09-18T04:04:55;99786.81;;;11.74;100.00
62712;BME280;48772;55.586;37.730;2023-09-18T04:07:22;99767.25;;;11.74;100.00
62712;BME280;48772;55.586;37.730;2023-09-18T04:09:48;99764.34;;;11.77;100.00
62712;BME280;48772;55.586;37.730;2023-09-18T04:12:15;99768.44;;;11.81;100.00
62712;BME280;48772;55.586;37.730;2023-09-18T04:14:41;99732.31;;;11.66;100.00
62712;BME280;48772;55.586;37.730;2023-09-18T04:17:08;99749.28;;;11.76;100.00
62712;BME280;48772;55.586;37.730;2023-09-18T04:19:34;99764.28;;;11.88;100.00
62712;BME280;48772;55.586;37.730;2023-09-18T04:22:00;99768.16;;;11.95;100.00
62712;BME280;48772;55.586;37.730;2023-09-18T04:24:26;99751.38;;;11.93;100.00
62712;BME280;48772;55.586;37.730;2023-09-18T04:26:52;99762.41;;;11.99;100.00
62712;BME280;48772;55.586;37.730;2023-09-18T04:29:19;99762.88;;;12.04;100.00
62712;BME280;48772;55.586;37.730;2023-09-18T04:31:48;99736.47;;;11.90;100.00
62712;BME280;48772;55.586;37.730;2023-09-18T04:34:14;99752.44;;;12.01;100.00
62712;BME280;48772;55.586;37.730;2023-09-18T04:36:40;99758.09;;;12.08;100.00
62712;BME280;48772;55.586;37.730;2023-09-18T04:39:07;99759.16;;;12.16;100.00
62712;BME280;48772;55.586;37.730;2023-09-18T04:41:35;99749.19;;;12.18;100.00
62712;BME280;48772;55.586;37.730;2023-09-18T04:44:04;99755.97;;;12.22;100.00
62712;BME280;48772;55.586;37.730;2023-09-18T04:46:33;99753.44;;;12.21;100.00
62712;BME280;48772;55.586;37.730;2023-09-18T04:49:00;99753.34;;;12.32;100.00
62712;BME280;48772;55.586;37.730;2023-09-18T04:51:25;99740.13;;;12.30;100.00
62712;BME280;48772;55.586;37.730;2023-09-18T04:53:51;99746.16;;;12.32;100.00
62712;BME280;48772;55.586;37.730;2023-09-18T04:56:17;99756.66;;;12.45;100.00
62712;BME280;48772;55.586;37.730;2023-09-18T04:58:44;99737.75;;;12.37;100.00
62712;BME280;48772;55.586;37.730;2023-09-18T05:01:10;99741.91;;;12.50;100.00
62712;BME280;48772;55.586;37.730;2023-09-18T05:03:39;99751.50;;;12.53;100.00
62712;BME280;48772;55.586;37.730;2023-09-18T05:06:05;99738.56;;;12.58;100.00
62712;BME280;48772;55.586;37.730;2023-09-18T05:08:31;99747.09;;;12.72;100.00
62712;BME280;48772;55.586;37.730;2023-09-18T05:10:57;99734.00;;;12.69;100.00
62712;BME280;48772;55.586;37.730;2023-09-18T05:13:24;99731.03;;;12.72;100.00
62712;BME280;48772;55.586;37.730;2023-09-18T05:15:50;99742.63;;;12.82;100.00
62712;BME280;48772;55.586;37.730;2023-09-18T05:18:17;99720.66;;;12.79;100.00
62712;BME280;48772;55.586;37.730;2023-09-18T05:20:43;99728.97;;;12.85;100.00
62712;BME280;48772;55.586;37.730;2023-09-18T05:23:09;99743.38;;;12.94;100.00
62712;BME280;48772;55.586;37.730;2023-09-18T05:25:35;99750.75;;;13.01;100.00
62712;BME280;48772;55.586;37.730;2023-09-18T05:28:04;99734.97;;;12.98;100.00
62712;BME280;48772;55.586;37.730;2023-09-18T05:30:33;99735.69;;;13.10;100.00
62712;BME280;48772;55.586;37.730;2023-09-18T05:33:02;99743.91;;;13.18;100.00
62712;BME280;48772;55.586;37.730;2023-09-18T05:35:40;99751.81;;;13.29;100.00
62712;BME280;48772;55.586;37.730;2023-09-18T05:38:07;99747.75;;;13.34;100.00
62712;BME280;48772;55.586;37.730;2023-09-18T05:40:35;99739.69;;;13.25;100.00
62712;BME280;48772;55.586;37.730;2023-09-18T05:43:01;99754.38;;;13.40;100.00
62712;BME280;48772;55.586;37.730;2023-09-18T05:45:27;99756.38;;;13.48;100.00
62712;BME280;48772;55.586;37.730;2023-09-18T05:47:54;99730.56;;;13.94;100.00
62712;BME280;48772;55.586;37.730;2023-09-18T05:50:20;99738.84;;;14.48;100.00
62712;BME280;48772;55.586;37.730;2023-09-18T05:52:47;99706.78;;;14.47;100.00
62712;BME280;48772;55.586;37.730;2023-09-18T05:55:17;99720.25;;;14.74;100.00
62712;BME280;48772;55.586;37.730;2023-09-18T05:57:43;99732.94;;;15.08;100.00
62712;BME280;48772;55.586;37.730;2023-09-18T06:00:09;99712.03;;;15.12;100.00
62712;BME280;48772;55.586;37.730;2023-09-18T06:02:40;99723.69;;;15.47;100.00
62712;BME280;48772;55.586;37.730;2023-09-18T06:05:07;99722.41;;;15.51;100.00
62712;BME280;48772;55.586;37.730;2023-09-18T06:07:37;99725.19;;;15.77;100.00
62712;BME280;48772;55.586;37.730;2023-09-18T06:10:04;99673.41;;;15.75;100.00
62712;BME280;48772;55.586;37.730;2023-09-18T06:12:31;99710.28;;;16.25;100.00
62712;BME280;48772;55.586;37.730;2023-09-18T06:14:56;99698.69;;;16.51;100.00
62712;BME280;48772;55.586;37.730;2023-09-18T06:17:23;99692.69;;;16.57;100.00
62712;BME280;48772;55.586;37.730;2023-09-18T06:19:49;99709.66;;;16.83;100.00
62712;BME280;48772;55.586;37.730;2023-09-18T06:22:16;99697.19;;;16.82;100.00
62712;BME280;48772;55.586;37.730;2023-09-18T06:24:42;99692.16;;;16.87;100.00
62712;BME280;48772;55.586;37.730;2023-09-18T06:27:08;99701.00;;;17.05;100.00
62712;BME280;48772;55.586;37.730;2023-09-18T06:29:34;99698.00;;;17.16;100.00
62712;BME280;48772;55.586;37.730;2023-09-18T06:32:01;99709.34;;;17.35;100.00
62712;BME280;48772;55.586;37.730;2023-09-18T06:34:27;99704.16;;;17.42;100.00
62712;BME280;48772;55.586;37.730;2023-09-18T06:36:56;99707.72;;;17.42;100.00
62712;BME280;48772;55.586;37.730;2023-09-18T06:39:21;99711.47;;;17.57;100.00
62712;BME280;48772;55.586;37.730;2023-09-18T06:41:49;99680.44;;;17.77;100.00
62712;BME280;48772;55.586;37.730;2023-09-18T06:44:18;99703.56;;;18.44;100.00
62712;BME280;48772;55.586;37.730;2023-09-18T06:46:44;99695.28;;;19.00;100.00
62712;BME280;48772;55.586;37.730;2023-09-18T06:49:10;99669.53;;;19.20;100.00
62712;BME280;48772;55.586;37.730;2023-09-18T06:51:36;99684.25;;;19.48;100.00
62712;BME280;48772;55.586;37.730;2023-09-18T06:54:02;99689.97;;;19.76;100.00
62712;BME280;48772;55.586;37.730;2023-09-18T06:56:29;99688.47;;;19.73;100.00
62712;BME280;48772;55.586;37.730;2023-09-18T06:58:55;99706.34;;;19.29;100.00
62712;BME280;48772;55.586;37.730;2023-09-18T07:01:22;99686.91;;;18.87;100.00
62712;BME280;48772;55.586;37.730;2023-09-18T07:03:51;99697.13;;;18.61;100.00
62712;BME280;48772;55.586;37.730;2023-09-18T07:06:21;99698.09;;;18.76;100.00
62712;BME280;48772;55.586;37.730;2023-09-18T07:08:48;99688.78;;;18.78;100.00
62712;BME280;48772;55.586;37.730;2023-09-18T07:11:18;99710.88;;;18.82;100.00
62712;BME280;48772;55.586;37.730;2023-09-18T07:13:47;99697.59;;;18.72;100.00
62712;BME280;48772;55.586;37.730;2023-09-18T07:16:13;99692.69;;;18.68;100.00
62712;BME280;48772;55.586;37.730;2023-09-18T07:18:39;99678.94;;;18.39;100.00
62712;BME280;48772;55.586;37.730;2023-09-18T07:21:05;99701.84;;;18.27;100.00
62712;BME280;48772;55.586;37.730;2023-09-18T07:23:31;99711.00;;;18.18;100.00
62712;BME280;48772;55.586;37.730;2023-09-18T07:25:57;99705.25;;;18.29;100.00
62712;BME280;48772;55.586;37.730;2023-09-18T07:28:26;99714.66;;;18.73;100.00
62712;BME280;48772;55.586;37.730;2023-09-18T07:30:52;99710.03;;;18.89;100.00
62712;BME280;48772;55.586;37.730;2023-09-18T07:33:18;99704.13;;;18.86;100.00
62712;BME280;48772;55.586;37.730;2023-09-18T07:35:47;99693.78;;;18.43;100.00
62712;BME280;48772;55.586;37.730;2023-09-18T07:38:23;99705.59;;;18.26;100.00
62712;BME280;48772;55.586;37.730;2023-09-18T07:40:50;99722.09;;;18.31;100.00
62712;BME280;48772;55.586;37.730;2023-09-18T07:43:17;99718.00;;;18.75;100.00
62712;BME280;48772;55.586;37.730;2023-09-18T07:45:43;99729.97;;;18.80;100.00
62712;BME280;48772;55.586;37.730;2023-09-18T07:48:09;99730.78;;;18.97;100.00
62712;BME280;48772;55.586;37.730;2023-09-18T07:50:35;99711.03;;;18.96;100.00
62712;BME280;48772;55.586;37.730;2023-09-18T07:53:04;99730.78;;;18.97;100.00
62712;BME280;48772;55.586;37.730;2023-09-18T07:55:30;99722.34;;;18.92;100.00
62712;BME280;48772;55.586;37.730;2023-09-18T07:57:57;99713.94;;;18.87;100.00
62712;BME280;48772;55.586;37.730;2023-09-18T08:00:24;99725.91;;;18.92;100.00
62712;BME280;48772;55.586;37.730;2023-09-18T08:02:50;99728.41;;;19.02;100.00
62712;BME280;48772;55.586;37.730;2023-09-18T08:05:20;99722.03;;;19.33;100.00
62712;BME280;48772;55.586;37.730;2023-09-18T08:07:47;99722.94;;;19.79;100.00
62712;BME280;48772;55.586;37.730;2023-09-18T08:10:13;99719.22;;;20.25;100.00
62712;BME280;48772;55.586;37.730;2023-09-18T08:12:39;99721.38;;;21.25;100.00
62712;BME280;48772;55.586;37.730;2023-09-18T08:15:06;99723.69;;;21.42;100.00
62712;BME280;48772;55.586;37.730;2023-09-18T08:17:33;99702.94;;;22.33;100.00
62712;BME280;48772;55.586;37.730;2023-09-18T08:19:59;99669.22;;;22.00;100.00
62712;BME280;48772;55.586;37.730;2023-09-18T08:22:25;99670.91;;;21.80;100.00
62712;BME280;48772;55.586;37.730;2023-09-18T08:24:52;99713.53;;;22.01;100.00
62712;BME280;48772;55.586;37.730;2023-09-18T08:27:19;99708.66;;;22.38;100.00
62712;BME280;48772;55.586;37.730;2023-09-18T08:29:46;99704.69;;;23.37;100.00
62712;BME280;48772;55.586;37.730;2023-09-18T08:32:13;99695.09;;;23.41;100.00
62712;BME280;48772;55.586;37.730;2023-09-18T08:34:40;99685.75;;;23.16;100.00
62712;BME280;48772;55.586;37.730;2023-09-18T08:37:06;99699.88;;;22.64;100.00
62712;BME280;48772;55.586;37.730;2023-09-18T08:39:32;99665.91;;;22.26;100.00
62712;BME280;48772;55.586;37.730;2023-09-18T08:42:03;99695.34;;;21.80;100.00
62712;BME280;48772;55.586;37.730;2023-09-18T08:44:30;99699.75;;;21.46;100.00
62712;BME280;48772;55.586;37.730;2023-09-18T08:46:57;99705.84;;;21.19;100.00
62712;BME280;48772;55.586;37.730;2023-09-18T08:49:24;99712.59;;;21.08;100.00
62712;BME280;48772;55.586;37.730;2023-09-18T08:51:51;99714.81;;;20.90;100.00
62712;BME280;48772;55.586;37.730;2023-09-18T08:54:19;99708.56;;;20.61;100.00
62712;BME280;48772;55.586;37.730;2023-09-18T08:56:46;99714.34;;;20.58;100.00
62712;BME280;48772;55.586;37.730;2023-09-18T08:59:12;99717.97;;;20.50;100.00
62712;BME280;48772;55.586;37.730;2023-09-18T09:01:39;99696.03;;;20.45;100.00
62712;BME280;48772;55.586;37.730;2023-09-18T09:04:06;99704.94;;;20.31;100.00
62712;BME280;48772;55.586;37.730;2023-09-18T09:06:32;99711.28;;;20.24;100.00
62712;BME280;48772;55.586;37.730;2023-09-18T09:08:58;99705.03;;;20.23;100.00
62712;BME280;48772;55.586;37.730;2023-09-18T09:11:24;99712.97;;;20.25;100.00
62712;BME280;48772;55.586;37.730;2023-09-18T09:29:22;99694.09;;;20.17;100.00
62712;BME280;48772;55.586;37.730;2023-09-18T09:31:48;99713.91;;;20.09;100.00
62712;BME280;48772;55.586;37.730;2023-09-18T09:34:27;99720.16;;;19.65;100.00
62712;BME280;48772;55.586;37.730;2023-09-18T09:36:56;99713.75;;;19.35;100.00
62712;BME280;48772;55.586;37.730;2023-09-18T09:39:22;99713.75;;;19.35;100.00
62712;BME280;48772;55.586;37.730;2023-09-18T09:41:52;99699.78;;;19.15;100.00
62712;BME280;48772;55.586;37.730;2023-09-18T09:44:19;99716.63;;;19.33;100.00
62712;BME280;48772;55.586;37.730;2023-09-18T09:46:48;99729.09;;;18.96;100.00
62712;BME280;48772;55.586;37.730;2023-09-18T09:49:15;99738.91;;;18.89;100.00
62712;BME280;48772;55.586;37.730;2023-09-18T09:51:42;99739.25;;;18.86;100.00
62712;BME280;48772;55.586;37.730;2023-09-18T09:54:08;99711.47;;;18.61;100.00
62712;BME280;48772;55.586;37.730;2023-09-18T09:56:47;99718.09;;;18.43;100.00
62712;BME280;48772;55.586;37.730;2023-09-18T09:59:27;99745.09;;;18.51;100.00
62712;BME280;48772;55.586;37.730;2023-09-18T10:01:56;99742.50;;;18.73;100.00
62712;BME280;48772;55.586;37.730;2023-09-18T10:04:29;99716.00;;;18.69;100.00
62712;BME280;48772;55.586;37.730;2023-09-18T10:07:34;99755.50;;;18.70;100.00
62712;BME280;48772;55.586;37.730;2023-09-18T10:10:53;99705.44;;;18.98;100.00
62712;BME280;48772;55.586;37.730;2023-09-18T10:13:41;99742.19;;;19.31;100.00
62712;BME280;48772;55.586;37.730;2023-09-18T10:16:18;99692.91;;;19.05;100.00
62712;BME280;48772;55.586;37.730;2023-09-18T10:19:03;99746.91;;;19.29;100.00
62712;BME280;48772;55.586;37.730;2023-09-18T10:24:39;99740.78;;;18.80;100.00
62712;BME280;48772;55.586;37.730;2023-09-18T10:27:05;99741.63;;;18.81;100.00
62712;BME280;48772;55.586;37.730;2023-09-18T10:29:36;99714.00;;;18.63;100.00
62712;BME280;48772;55.586;37.730;2023-09-18T10:32:03;99734.59;;;18.72;100.00
62712;BME280;48772;55.586;37.730;2023-09-18T10:34:30;99737.09;;;18.81;100.00
62712;BME280;48772;55.586;37.730;2023-09-18T10:37:00;99677.56;;;18.51;100.00
62712;BME280;48772;55.586;37.730;2023-09-18T10:39:28;99746.47;;;19.01;100.00
62712;BME280;48772;55.586;37.730;2023-09-18T10:41:56;99739.22;;;19.02;100.00
62712;BME280;48772;55.586;37.730;2023-09-18T10:44:28;99727.69;;;19.08;100.00
62712;BME280;48772;55.586;37.730;2023-09-18T10:46:54;99737.94;;;19.20;100.00
62712;BME280;48772;55.586;37.730;2023-09-18T10:49:24;99748.09;;;19.18;100.00
62712;BME280;48772;55.586;37.730;2023-09-18T10:51:54;99741.50;;;19.29;100.00
62712;BME280;48772;55.586;37.730;2023-09-18T10:54:22;99734.06;;;19.23;100.00
62712;BME280;48772;55.586;37.730;2023-09-18T10:56:49;99737.63;;;19.15;100.00
62712;BME280;48772;55.586;37.730;2023-09-18T10:59:15;99718.59;;;19.09;100.00
62712;BME280;48772;55.586;37.730;2023-09-18T11:01:43;99713.53;;;19.06;100.00
62712;BME280;48772;55.586;37.730;2023-09-18T11:04:10;99714.97;;;19.16;100.00
62712;BME280;48772;55.586;37.730;2023-09-18T11:09:26;99736.38;;;19.42;100.00
62712;BME280;48772;55.586;37.730;2023-09-18T11:14:47;99730.59;;;20.58;100.00
62712;BME280;48772;55.586;37.730;2023-09-18T11:17:32;99713.13;;;21.47;100.00
62712;BME280;48772;55.586;37.730;2023-09-18T11:20:20;99718.03;;;21.73;100.00
62712;BME280;48772;55.586;37.730;2023-09-18T11:22:48;99728.38;;;21.48;100.00
62712;BME280;48772;55.586;37.730;2023-09-18T11:28:08;99696.59;;;22.48;100.00
62712;BME280;48772;55.586;37.730;2023-09-18T11:43:26;99712.50;;;24.52;100.00
62712;BME280;48772;55.586;37.730;2023-09-18T11:45:59;99709.34;;;24.29;100.00
62712;BME280;48772;55.586;37.730;2023-09-18T11:48:27;99694.44;;;24.57;100.00
62712;BME280;48772;55.586;37.730;2023-09-18T11:50:59;99696.91;;;24.98;100.00
62712;BME280;48772;55.586;37.730;2023-09-18T11:53:27;99694.78;;;25.06;100.00
62712;BME280;48772;55.586;37.730;2023-09-18T11:55:53;99710.28;;;25.32;100.00
62712;BME280;48772;55.586;37.730;2023-09-18T11:58:20;99687.25;;;24.95;100.00
62712;BME280;48772;55.586;37.730;2023-09-18T12:00:55;99683.97;;;24.48;100.00
62712;BME280;48772;55.586;37.730;2023-09-18T12:03:23;99708.00;;;23.86;100.00
62712;BME280;48772;55.586;37.730;2023-09-18T12:05:59;99717.91;;;23.06;100.00
62712;BME280;48772;55.586;37.730;2023-09-18T12:08:26;99719.03;;;22.84;100.00
62712;BME280;48772;55.586;37.730;2023-09-18T12:10:55;99716.09;;;22.51;100.00
62712;BME280;48772;55.586;37.730;2023-09-18T12:13:22;99716.66;;;22.68;100.00
62712;BME280;48772;55.586;37.730;2023-09-18T12:15:52;99722.22;;;22.38;100.00
62712;BME280;48772;55.586;37.730;2023-09-18T12:18:22;99692.50;;;21.88;100.00
62712;BME280;48772;55.586;37.730;2023-09-18T12:20:50;99700.50;;;21.75;100.00
62712;BME280;48772;55.586;37.730;2023-09-18T12:23:17;99708.69;;;21.61;100.00
62712;BME280;48772;55.586;37.730;2023-09-18T12:25:48;99703.88;;;21.77;100.00
62712;BME280;48772;55.586;37.730;2023-09-18T12:28:15;99712.66;;;22.42;100.00
62712;BME280;48772;55.586;37.730;2023-09-18T12:30:43;99715.03;;;23.14;100.00
62712;BME280;48772;55.586;37.730;2023-09-18T12:33:10;99715.69;;;23.63;100.00
62712;BME280;48772;55.586;37.730;2023-09-18T12:35:36;99709.97;;;23.45;100.00
62712;BME280;48772;55.586;37.730;2023-09-18T12:38:13;99718.56;;;23.08;100.00
62712;BME280;48772;55.586;37.730;2023-09-18T12:40:39;99726.13;;;22.51;100.00
62712;BME280;48772;55.586;37.730;2023-09-18T12:43:05;99733.38;;;22.01;100.00
62712;BME280;48772;55.586;37.730;2023-09-18T12:45:31;99732.53;;;21.65;100.00
62712;BME280;48772;55.586;37.730;2023-09-18T12:47:58;99704.06;;;21.26;100.00
62712;BME280;48772;55.586;37.730;2023-09-18T12:50:25;99733.28;;;21.09;100.00
62712;BME280;48772;55.586;37.730;2023-09-18T12:52:51;99725.13;;;21.09;100.00
62712;BME280;48772;55.586;37.730;2023-09-18T12:55:21;99713.69;;;20.85;100.00
62712;BME280;48772;55.586;37.730;2023-09-18T12:57:50;99729.34;;;20.83;100.00
62712;BME280;48772;55.586;37.730;2023-09-18T13:00:21;99737.03;;;21.08;100.00
62712;BME280;48772;55.586;37.730;2023-09-18T13:02:49;99738.97;;;21.43;100.00
62712;BME280;48772;55.586;37.730;2023-09-18T13:05:23;99735.50;;;21.35;100.00
62712;BME280;48772;55.586;37.730;2023-09-18T13:07:55;99734.72;;;21.41;100.00
62712;BME280;48772;55.586;37.730;2023-09-18T13:10:22;99723.94;;;21.12;100.00
62712;BME280;48772;55.586;37.730;2023-09-18T13:12:53;99743.19;;;21.02;100.00
62712;BME280;48772;55.586;37.730;2023-09-18T13:15:29;99710.44;;;20.89;100.00
62712;BME280;48772;55.586;37.730;2023-09-18T13:17:55;99737.28;;;20.84;100.00
62712;BME280;48772;55.586;37.730;2023-09-18T13:20:24;99715.56;;;20.55;100.00
62712;BME280;48772;55.586;37.730;2023-09-18T13:22:53;99744.97;;;20.58;100.00
62712;BME280;48772;55.586;37.730;2023-09-18T13:25:25;99723.84;;;20.39;100.00